sensor_id;sensor_type;location;lat;lon;timestamp;temperature;humidity
62853;DHT22;49205;44.868;38.140;2022-07-19T00:00:23;22.90;69.40
62853;DHT22;49205;44.868;38.140;2022-07-19T00:02:52;22.90;69.20
62853;DHT22;49205;44.868;38.140;2022-07-19T00:05:22;22.80;69.60
62853;DHT22;49205;44.868;38.140;2022-07-19T00:07:51;22.90;69.40
62853;DHT22;49205;44.868;38.140;2022-07-19T00:10:20;22.90;69.30
62853;DHT22;49205;44.868;38.140;2022-07-19T00:12:49;22.90;69.60
62853;DHT22;49205;44.868;38.140;2022-07-19T00:15:18;22.90;69.80
62853;DHT22;49205;44.868;38.140;2022-07-19T00:17:48;23.00;69.90
62853;DHT22;49205;44.868;38.140;2022-07-19T00:20:19;23.00;70.00
62853;DHT22;49205;44.868;38.140;2022-07-19T00:22:49;22.90;70.30
62853;DHT22;49205;44.868;38.140;2022-07-19T00:25:18;23.00;70.30
62853;DHT22;49205;44.868;38.140;2022-07-19T00:27:46;22.90;70.30
62853;DHT22;49205;44.868;38.140;2022-07-19T00:30:16;22.90;69.80
62853;DHT22;49205;44.868;38.140;2022-07-19T00:32:45;22.90;69.90
62853;DHT22;49205;44.868;38.140;2022-07-19T00:35:13;22.80;70.20
62853;DHT22;49205;44.868;38.140;2022-07-19T00:37:42;22.80;70.30
62853;DHT22;49205;44.868;38.140;2022-07-19T00:40:12;22.80;70.10
62853;DHT22;49205;44.868;38.140;2022-07-19T00:42:41;22.80;70.40
62853;DHT22;49205;44.868;38.140;2022-07-19T00:45:10;22.80;70.70
62853;DHT22;49205;44.868;38.140;2022-07-19T00:47:39;22.80;70.70
62853;DHT22;49205;44.868;38.140;2022-07-19T00:50:08;22.80;70.70
62853;DHT22;49205;44.868;38.140;2022-07-19T00:52:39;22.80;70.90
62853;DHT22;49205;44.868;38.140;2022-07-19T00:55:09;22.80;70.80
62853;DHT22;49205;44.868;38.140;2022-07-19T00:57:38;22.80;70.80
62853;DHT22;49205;44.868;38.140;2022-07-19T01:00:09;22.80;71.00
62853;DHT22;49205;44.868;38.140;2022-07-19T01:02:38;22.80;70.80
62853;DHT22;49205;44.868;38.140;2022-07-19T01:05:08;22.80;70.70
62853;DHT22;49205;44.868;38.140;2022-07-19T01:07:40;22.80;70.50
62853;DHT22;49205;44.868;38.140;2022-07-19T01:10:13;22.70;70.30
62853;DHT22;49205;44.868;38.140;2022-07-19T01:12:41;22.70;70.50
62853;DHT22;49205;44.868;38.140;2022-07-19T01:15:19;22.60;70.60
62853;DHT22;49205;44.868;38.140;2022-07-19T01:17:48;22.60;70.40
62853;DHT22;49205;44.868;38.140;2022-07-19T01:20:18;22.50;70.10
62853;DHT22;49205;44.868;38.140;2022-07-19T01:22:48;22.50;70.10
62853;DHT22;49205;44.868;38.140;2022-07-19T01:25:17;22.40;69.90
62853;DHT22;49205;44.868;38.140;2022-07-19T01:27:47;22.30;70.00
62853;DHT22;49205;44.868;38.140;2022-07-19T01:30:22;22.30;70.50
62853;DHT22;49205;44.868;38.140;2022-07-19T01:32:51;22.20;70.50
62853;DHT22;49205;44.868;38.140;2022-07-19T01:35:20;22.10;70.80
62853;DHT22;49205;44.868;38.140;2022-07-19T01:37:50;22.10;71.30
62853;DHT22;49205;44.868;38.140;2022-07-19T01:40:19;22.10;71.40
62853;DHT22;49205;44.868;38.140;2022-07-19T01:42:48;22.10;71.50
62853;DHT22;49205;44.868;38.140;2022-07-19T01:45:18;22.10;71.40
62853;DHT22;49205;44.868;38.140;2022-07-19T01:47:48;22.10;71.40
62853;DHT22;49205;44.868;38.140;2022-07-19T01:50:18;22.10;71.60
62853;DHT22;49205;44.868;38.140;2022-07-19T01:52:47;22.10;71.40
62853;DHT22;49205;44.868;38.140;2022-07-19T01:55:16;22.00;71.60
62853;DHT22;49205;44.868;38.140;2022-07-19T01:57:46;22.00;71.70
62853;DHT22;49205;44.868;38.140;2022-07-19T02:00:15;22.00;71.60
62853;DHT22;49205;44.868;38.140;2022-07-19T02:02:44;21.90;70.80
62853;DHT22;49205;44.868;38.140;2022-07-19T02:05:13;21.90;70.50
62853;DHT22;49205;44.868;38.140;2022-07-19T02:07:42;21.80;70.30
62853;DHT22;49205;44.868;38.140;2022-07-19T02:10:11;21.80;70.60
62853;DHT22;49205;44.868;38.140;2022-07-19T02:12:40;21.80;70.50
62853;DHT22;49205;44.868;38.140;2022-07-19T02:15:09;21.80;70.90
62853;DHT22;49205;44.868;38.140;2022-07-19T02:17:38;21.80;71.00
62853;DHT22;49205;44.868;38.140;2022-07-19T02:20:08;21.90;71.20
62853;DHT22;49205;44.868;38.140;2022-07-19T02:22:37;21.90;71.20
62853;DHT22;49205;44.868;38.140;2022-07-19T02:25:06;21.90;70.70
62853;DHT22;49205;44.868;38.140;2022-07-19T02:27:36;21.90;70.00
62853;DHT22;49205;44.868;38.140;2022-07-19T02:30:05;21.90;69.10
62853;DHT22;49205;44.868;38.140;2022-07-19T02:32:34;21.90;68.30
62853;DHT22;49205;44.868;38.140;2022-07-19T02:35:05;21.70;67.80
62853;DHT22;49205;44.868;38.140;2022-07-19T02:37:35;21.60;68.00
62853;DHT22;49205;44.868;38.140;2022-07-19T02:40:04;21.50;68.20
62853;DHT22;49205;44.868;38.140;2022-07-19T02:42:33;21.50;68.10
62853;DHT22;49205;44.868;38.140;2022-07-19T02:45:03;21.40;68.60
62853;DHT22;49205;44.868;38.140;2022-07-19T02:47:32;21.40;68.60
62853;DHT22;49205;44.868;38.140;2022-07-19T02:50:01;21.40;68.40
62853;DHT22;49205;44.868;38.140;2022-07-19T02:52:30;21.40;68.60
62853;DHT22;49205;44.868;38.140;2022-07-19T02:54:59;21.40;68.00
62853;DHT22;49205;44.868;38.140;2022-07-19T02:57:28;21.40;67.90
62853;DHT22;49205;44.868;38.140;2022-07-19T02:59:57;21.50;68.00
62853;DHT22;49205;44.868;38.140;2022-07-19T03:02:26;21.50;67.90
62853;DHT22;49205;44.868;38.140;2022-07-19T03:04:55;21.50;67.90
62853;DHT22;49205;44.868;38.140;2022-07-19T03:07:24;21.50;68.30
62853;DHT22;49205;44.868;38.140;2022-07-19T03:09:52;21.50;68.30
62853;DHT22;49205;44.868;38.140;2022-07-19T03:12:21;21.50;68.90
62853;DHT22;49205;44.868;38.140;2022-07-19T03:14:50;21.60;69.40
62853;DHT22;49205;44.868;38.140;2022-07-19T03:17:19;21.60;69.60
62853;DHT22;49205;44.868;38.140;2022-07-19T03:19:48;21.70;69.50
62853;DHT22;49205;44.868;38.140;2022-07-19T03:22:17;21.80;69.50
62853;DHT22;49205;44.868;38.140;2022-07-19T03:24:46;21.80;69.40
62853;DHT22;49205;44.868;38.140;2022-07-19T03:27:15;21.90;68.90
62853;DHT22;49205;44.868;38.140;2022-07-19T03:29:44;21.90;68.80
62853;DHT22;49205;44.868;38.140;2022-07-19T03:32:13;22.00;69.00
62853;DHT22;49205;44.868;38.140;2022-07-19T03:34:42;22.10;69.00
62853;DHT22;49205;44.868;38.140;2022-07-19T03:37:11;22.20;68.60
62853;DHT22;49205;44.868;38.140;2022-07-19T03:39:40;22.40;68.40
62853;DHT22;49205;44.868;38.140;2022-07-19T03:42:09;22.50;67.60
62853;DHT22;49205;44.868;38.140;2022-07-19T03:44:38;22.60;66.30
62853;DHT22;49205;44.868;38.140;2022-07-19T03:47:07;22.50;66.20
62853;DHT22;49205;44.868;38.140;2022-07-19T03:49:36;22.50;66.00
62853;DHT22;49205;44.868;38.140;2022-07-19T03:52:05;22.50;66.10
62853;DHT22;49205;44.868;38.140;2022-07-19T03:54:34;22.50;66.20
62853;DHT22;49205;44.868;38.140;2022-07-19T03:57:03;22.60;65.60
62853;DHT22;49205;44.868;38.140;2022-07-19T03:59:32;22.60;66.10
62853;DHT22;49205;44.868;38.140;2022-07-19T04:02:01;22.60;66.50
62853;DHT22;49205;44.868;38.140;2022-07-19T04:04:30;22.70;65.20
62853;DHT22;49205;44.868;38.140;2022-07-19T04:06:59;22.70;65.00
62853;DHT22;49205;44.868;38.140;2022-07-19T04:09:27;22.60;64.10
62853;DHT22;49205;44.868;38.140;2022-07-19T04:11:56;22.60;64.80
62853;DHT22;49205;44.868;38.140;2022-07-19T04:14:25;22.60;64.70
62853;DHT22;49205;44.868;38.140;2022-07-19T04:16:54;22.60;64.70
62853;DHT22;49205;44.868;38.140;2022-07-19T04:19:23;22.70;64.80
62853;DHT22;49205;44.868;38.140;2022-07-19T04:21:52;22.80;64.70
62853;DHT22;49205;44.868;38.140;2022-07-19T04:24:21;22.90;64.40
62853;DHT22;49205;44.868;38.140;2022-07-19T04:26:50;23.00;63.70
62853;DHT22;49205;44.868;38.140;2022-07-19T04:29:19;23.10;63.60
62853;DHT22;49205;44.868;38.140;2022-07-19T04:31:48;23.10;63.60
62853;DHT22;49205;44.868;38.140;2022-07-19T04:34:17;23.20;62.30
62853;DHT22;49205;44.868;38.140;2022-07-19T04:36:46;23.30;62.00
62853;DHT22;49205;44.868;38.140;2022-07-19T04:39:15;23.30;62.00
62853;DHT22;49205;44.868;38.140;2022-07-19T04:41:44;23.40;62.10
62853;DHT22;49205;44.868;38.140;2022-07-19T04:44:13;23.50;61.50
62853;DHT22;49205;44.868;38.140;2022-07-19T04:46:42;23.50;61.10
62853;DHT22;49205;44.868;38.140;2022-07-19T04:49:11;23.60;60.30
62853;DHT22;49205;44.868;38.140;2022-07-19T04:51:39;23.50;59.80
62853;DHT22;49205;44.868;38.140;2022-07-19T04:54:08;23.60;59.50
62853;DHT22;49205;44.868;38.140;2022-07-19T04:56:37;23.60;59.70
62853;DHT22;49205;44.868;38.140;2022-07-19T04:59:06;23.70;59.00
62853;DHT22;49205;44.868;38.140;2022-07-19T05:01:35;23.70;58.60
62853;DHT22;49205;44.868;38.140;2022-07-19T05:04:04;23.70;57.90
62853;DHT22;49205;44.868;38.140;2022-07-19T05:06:33;23.70;58.10
62853;DHT22;49205;44.868;38.140;2022-07-19T05:09:03;23.80;58.20
62853;DHT22;49205;44.868;38.140;2022-07-19T05:11:32;23.90;57.00
62853;DHT22;49205;44.868;38.140;2022-07-19T05:14:01;23.90;56.90
62853;DHT22;49205;44.868;38.140;2022-07-19T05:16:30;23.90;57.10
62853;DHT22;49205;44.868;38.140;2022-07-19T05:18:59;23.90;56.60
62853;DHT22;49205;44.868;38.140;2022-07-19T05:21:28;24.00;56.90
62853;DHT22;49205;44.868;38.140;2022-07-19T05:23:57;24.10;56.60
62853;DHT22;49205;44.868;38.140;2022-07-19T05:26:25;24.10;56.00
62853;DHT22;49205;44.868;38.140;2022-07-19T05:28:54;24.20;56.20
62853;DHT22;49205;44.868;38.140;2022-07-19T05:31:26;24.30;55.80
62853;DHT22;49205;44.868;38.140;2022-07-19T05:33:55;24.50;55.60
62853;DHT22;49205;44.868;38.140;2022-07-19T05:36:24;24.60;54.30
62853;DHT22;49205;44.868;38.140;2022-07-19T05:38:53;24.60;54.30
62853;DHT22;49205;44.868;38.140;2022-07-19T05:41:23;24.70;54.30
62853;DHT22;49205;44.868;38.140;2022-07-19T05:43:52;24.70;53.30
62853;DHT22;49205;44.868;38.140;2022-07-19T05:46:21;24.70;53.00
62853;DHT22;49205;44.868;38.140;2022-07-19T05:48:50;24.60;52.80
62853;DHT22;49205;44.868;38.140;2022-07-19T05:51:19;24.60;53.00
62853;DHT22;49205;44.868;38.140;2022-07-19T05:53:48;24.50;53.20
62853;DHT22;49205;44.868;38.140;2022-07-19T05:56:17;24.60;53.30
62853;DHT22;49205;44.868;38.140;2022-07-19T05:58:46;24.80;53.00
62853;DHT22;49205;44.868;38.140;2022-07-19T06:01:15;24.80;51.20
62853;DHT22;49205;44.868;38.140;2022-07-19T06:03:51;24.70;51.20
62853;DHT22;49205;44.868;38.140;2022-07-19T06:06:21;24.60;51.70
62853;DHT22;49205;44.868;38.140;2022-07-19T06:08:50;24.50;52.10
62853;DHT22;49205;44.868;38.140;2022-07-19T06:11:20;24.30;52.10
62853;DHT22;49205;44.868;38.140;2022-07-19T06:13:51;24.20;52.60
62853;DHT22;49205;44.868;38.140;2022-07-19T06:16:20;24.20;52.70
62853;DHT22;49205;44.868;38.140;2022-07-19T06:18:49;24.30;53.10
62853;DHT22;49205;44.868;38.140;2022-07-19T06:21:19;24.40;52.90
62853;DHT22;49205;44.868;38.140;2022-07-19T06:23:49;24.50;53.20
62853;DHT22;49205;44.868;38.140;2022-07-19T06:26:18;24.70;52.60
62853;DHT22;49205;44.868;38.140;2022-07-19T06:28:47;24.90;52.40
62853;DHT22;49205;44.868;38.140;2022-07-19T06:31:16;25.00;52.20
62853;DHT22;49205;44.868;38.140;2022-07-19T06:33:47;25.20;51.70
62853;DHT22;49205;44.868;38.140;2022-07-19T06:36:17;25.20;51.30
62853;DHT22;49205;44.868;38.140;2022-07-19T06:38:47;25.30;51.60
62853;DHT22;49205;44.868;38.140;2022-07-19T06:41:17;25.30;51.10
62853;DHT22;49205;44.868;38.140;2022-07-19T06:43:46;25.40;51.10
62853;DHT22;49205;44.868;38.140;2022-07-19T06:46:15;25.50;50.00
62853;DHT22;49205;44.868;38.140;2022-07-19T06:48:44;25.50;49.10
62853;DHT22;49205;44.868;38.140;2022-07-19T06:51:13;25.50;49.20
62853;DHT22;49205;44.868;38.140;2022-07-19T06:53:41;25.50;49.50
62853;DHT22;49205;44.868;38.140;2022-07-19T06:56:10;25.50;49.00
62853;DHT22;49205;44.868;38.140;2022-07-19T06:58:39;25.50;49.70
62853;DHT22;49205;44.868;38.140;2022-07-19T07:01:08;25.60;49.80
62853;DHT22;49205;44.868;38.140;2022-07-19T07:03:38;25.60;49.50
62853;DHT22;49205;44.868;38.140;2022-07-19T07:06:07;25.70;49.50
62853;DHT22;49205;44.868;38.140;2022-07-19T07:08:36;25.90;49.80
62853;DHT22;49205;44.868;38.140;2022-07-19T07:11:05;26.00;49.00
62853;DHT22;49205;44.868;38.140;2022-07-19T07:13:34;26.10;48.90
62853;DHT22;49205;44.868;38.140;2022-07-19T07:16:03;26.10;48.40
62853;DHT22;49205;44.868;38.140;2022-07-19T07:18:32;26.10;48.40
62853;DHT22;49205;44.868;38.140;2022-07-19T07:21:01;26.20;48.20
62853;DHT22;49205;44.868;38.140;2022-07-19T07:23:30;26.20;48.40
62853;DHT22;49205;44.868;38.140;2022-07-19T07:25:58;26.40;48.00
62853;DHT22;49205;44.868;38.140;2022-07-19T07:28:27;26.50;47.40
62853;DHT22;49205;44.868;38.140;2022-07-19T07:30:56;26.50;46.70
62853;DHT22;49205;44.868;38.140;2022-07-19T07:33:25;26.50;46.00
62853;DHT22;49205;44.868;38.140;2022-07-19T07:35:54;26.50;45.30
62853;DHT22;49205;44.868;38.140;2022-07-19T07:38:23;26.60;44.80
62853;DHT22;49205;44.868;38.140;2022-07-19T07:40:52;26.60;45.40
62853;DHT22;49205;44.868;38.140;2022-07-19T07:43:21;26.70;44.30
62853;DHT22;49205;44.868;38.140;2022-07-19T07:45:50;26.70;44.20
62853;DHT22;49205;44.868;38.140;2022-07-19T07:48:19;26.60;43.60
62853;DHT22;49205;44.868;38.140;2022-07-19T07:50:48;26.50;44.00
62853;DHT22;49205;44.868;38.140;2022-07-19T07:53:17;26.50;44.60
62853;DHT22;49205;44.868;38.140;2022-07-19T07:55:46;26.50;44.10
62853;DHT22;49205;44.868;38.140;2022-07-19T07:58:15;26.60;43.80
62853;DHT22;49205;44.868;38.140;2022-07-19T08:00:44;26.60;44.10
62853;DHT22;49205;44.868;38.140;2022-07-19T08:03:13;26.70;44.50
62853;DHT22;49205;44.868;38.140;2022-07-19T08:05:43;26.90;43.40
62853;DHT22;49205;44.868;38.140;2022-07-19T08:08:15;26.90;43.40
62853;DHT22;49205;44.868;38.140;2022-07-19T08:10:44;26.90;43.70
62853;DHT22;49205;44.868;38.140;2022-07-19T08:13:13;26.90;43.30
62853;DHT22;49205;44.868;38.140;2022-07-19T08:15:42;26.90;42.90
62853;DHT22;49205;44.868;38.140;2022-07-19T08:18:11;27.00;43.40
62853;DHT22;49205;44.868;38.140;2022-07-19T08:20:40;27.00;43.70
62853;DHT22;49205;44.868;38.140;2022-07-19T08:23:09;27.10;43.50
62853;DHT22;49205;44.868;38.140;2022-07-19T08:25:38;27.10;43.30
62853;DHT22;49205;44.868;38.140;2022-07-19T08:28:07;27.10;43.80
62853;DHT22;49205;44.868;38.140;2022-07-19T08:30:36;27.20;43.20
62853;DHT22;49205;44.868;38.140;2022-07-19T08:33:05;27.10;43.20
62853;DHT22;49205;44.868;38.140;2022-07-19T08:35:36;27.10;43.40
62853;DHT22;49205;44.868;38.140;2022-07-19T08:38:05;27.00;43.20
62853;DHT22;49205;44.868;38.140;2022-07-19T08:40:34;27.00;42.90
62853;DHT22;49205;44.868;38.140;2022-07-19T08:43:04;27.10;43.00
62853;DHT22;49205;44.868;38.140;2022-07-19T08:45:33;27.10;44.30
62853;DHT22;49205;44.868;38.140;2022-07-19T08:48:06;27.30;43.60
62853;DHT22;49205;44.868;38.140;2022-07-19T08:50:35;27.50;43.80
62853;DHT22;49205;44.868;38.140;2022-07-19T08:53:05;27.70;43.40
62853;DHT22;49205;44.868;38.140;2022-07-19T08:55:34;27.80;42.60
62853;DHT22;49205;44.868;38.140;2022-07-19T08:58:03;27.80;42.50
62853;DHT22;49205;44.868;38.140;2022-07-19T09:00:33;27.90;42.20
62853;DHT22;49205;44.868;38.140;2022-07-19T09:03:05;27.90;41.20
62853;DHT22;49205;44.868;38.140;2022-07-19T09:05:34;27.80;41.90
62853;DHT22;49205;44.868;38.140;2022-07-19T09:08:06;27.90;41.90
62853;DHT22;49205;44.868;38.140;2022-07-19T09:10:43;28.00;41.70
62853;DHT22;49205;44.868;38.140;2022-07-19T09:13:12;28.00;41.30
62853;DHT22;49205;44.868;38.140;2022-07-19T09:15:50;28.10;41.20
62853;DHT22;49205;44.868;38.140;2022-07-19T09:18:24;28.10;41.80
62853;DHT22;49205;44.868;38.140;2022-07-19T09:21:03;28.20;41.10
62853;DHT22;49205;44.868;38.140;2022-07-19T09:23:23;28.10;41.70
62853;DHT22;49205;44.868;38.140;2022-07-19T09:25:59;28.20;41.50
62853;DHT22;49205;44.868;38.140;2022-07-19T09:28:25;28.30;41.10
62853;DHT22;49205;44.868;38.140;2022-07-19T09:30:56;28.30;41.10
62853;DHT22;49205;44.868;38.140;2022-07-19T09:33:27;28.40;41.00
62853;DHT22;49205;44.868;38.140;2022-07-19T09:35:58;28.40;41.00
62853;DHT22;49205;44.868;38.140;2022-07-19T09:38:32;28.50;40.70
62853;DHT22;49205;44.868;38.140;2022-07-19T09:41:18;28.60;40.10
62853;DHT22;49205;44.868;38.140;2022-07-19T09:43:58;28.50;39.80
62853;DHT22;49205;44.868;38.140;2022-07-19T09:46:35;28.40;40.50
62853;DHT22;49205;44.868;38.140;2022-07-19T09:51:43;28.50;39.90
62853;DHT22;49205;44.868;38.140;2022-07-19T09:54:15;28.50;40.10
62853;DHT22;49205;44.868;38.140;2022-07-19T09:56:46;28.60;40.40
62853;DHT22;49205;44.868;38.140;2022-07-19T09:59:16;28.70;40.70
62853;DHT22;49205;44.868;38.140;2022-07-19T10:01:47;28.90;40.90
62853;DHT22;49205;44.868;38.140;2022-07-19T10:04:19;29.00;40.70
62853;DHT22;49205;44.868;38.140;2022-07-19T10:06:49;29.20;40.40
62853;DHT22;49205;44.868;38.140;2022-07-19T10:09:20;29.30;40.10
62853;DHT22;49205;44.868;38.140;2022-07-19T10:11:51;29.30;40.20
62853;DHT22;49205;44.868;38.140;2022-07-19T10:14:21;29.50;39.90
62853;DHT22;49205;44.868;38.140;2022-07-19T12:10:57;29.00;40.70
62853;DHT22;49205;44.868;38.140;2022-07-19T12:13:33;28.90;41.30
62853;DHT22;49205;44.868;38.140;2022-07-19T12:16:11;29.00;41.50
62853;DHT22;49205;44.868;38.140;2022-07-19T12:18:57;29.10;41.10
62853;DHT22;49205;44.868;38.140;2022-07-19T12:24:28;29.30;40.90
62853;DHT22;49205;44.868;38.140;2022-07-19T12:32:25;29.50;40.70
62853;DHT22;49205;44.868;38.140;2022-07-19T12:34:55;29.60;40.50
62853;DHT22;49205;44.868;38.140;2022-07-19T12:37:30;29.60;40.30
62853;DHT22;49205;44.868;38.140;2022-07-19T12:40:05;29.60;40.10
62853;DHT22;49205;44.868;38.140;2022-07-19T12:42:43;29.50;40.30
62853;DHT22;49205;44.868;38.140;2022-07-19T12:45:21;29.60;40.50
62853;DHT22;49205;44.868;38.140;2022-07-19T12:47:51;29.70;40.80
62853;DHT22;49205;44.868;38.140;2022-07-19T12:50:26;29.80;40.60
62853;DHT22;49205;44.868;38.140;2022-07-19T12:52:57;29.90;40.40
62853;DHT22;49205;44.868;38.140;2022-07-19T12:55:27;29.90;40.30
62853;DHT22;49205;44.868;38.140;2022-07-19T12:57:57;29.90;40.10
62853;DHT22;49205;44.868;38.140;2022-07-19T13:00:28;29.90;40.60
62853;DHT22;49205;44.868;38.140;2022-07-19T13:02:59;30.00;41.00
62853;DHT22;49205;44.868;38.140;2022-07-19T13:05:29;30.10;40.20
62853;DHT22;49205;44.868;38.140;2022-07-19T13:07:58;30.10;40.30
62853;DHT22;49205;44.868;38.140;2022-07-19T13:10:29;30.10;40.10
62853;DHT22;49205;44.868;38.140;2022-07-19T13:12:58;30.00;39.90
62853;DHT22;49205;44.868;38.140;2022-07-19T13:15:27;29.90;40.00
62853;DHT22;49205;44.868;38.140;2022-07-19T13:17:57;29.90;39.90
62853;DHT22;49205;44.868;38.140;2022-07-19T13:20:27;29.80;40.00
62853;DHT22;49205;44.868;38.140;2022-07-19T13:22:56;29.80;39.90
62853;DHT22;49205;44.868;38.140;2022-07-19T13:25:25;29.80;40.10
62853;DHT22;49205;44.868;38.140;2022-07-19T13:27:54;29.80;40.30
62853;DHT22;49205;44.868;38.140;2022-07-19T13:30:24;29.80;40.50
62853;DHT22;49205;44.868;38.140;2022-07-19T13:32:53;29.80;40.80
62853;DHT22;49205;44.868;38.140;2022-07-19T13:35:23;29.80;40.20
62853;DHT22;49205;44.868;38.140;2022-07-19T13:37:52;29.80;40.30
62853;DHT22;49205;44.868;38.140;2022-07-19T13:40:41;29.80;40.20
62853;DHT22;49205;44.868;38.140;2022-07-19T13:43:10;29.80;39.90
62853;DHT22;49205;44.868;38.140;2022-07-19T13:45:40;29.70;39.80
62853;DHT22;49205;44.868;38.140;2022-07-19T13:48:09;29.70;39.90
62853;DHT22;49205;44.868;38.140;2022-07-19T13:50:38;29.60;39.90
62853;DHT22;49205;44.868;38.140;2022-07-19T13:53:08;29.60;40.10
62853;DHT22;49205;44.868;38.140;2022-07-19T13:55:37;29.60;40.30
62853;DHT22;49205;44.868;38.140;2022-07-19T13:58:06;29.50;40.60
62853;DHT22;49205;44.868;38.140;2022-07-19T14:00:36;29.60;40.80
62853;DHT22;49205;44.868;38.140;2022-07-19T14:03:05;29.60;41.00
62853;DHT22;49205;44.868;38.140;2022-07-19T14:05:34;29.70;41.00
62853;DHT22;49205;44.868;38.140;2022-07-19T14:08:05;29.80;40.90
62853;DHT22;49205;44.868;38.140;2022-07-19T14:10:35;29.90;40.90
62853;DHT22;49205;44.868;38.140;2022-07-19T14:13:05;29.80;40.60
62853;DHT22;49205;44.868;38.140;2022-07-19T14:15:35;29.80;40.40
62853;DHT22;49205;44.868;38.140;2022-07-19T14:18:05;29.80;40.20
62853;DHT22;49205;44.868;38.140;2022-07-19T14:20:34;29.80;40.20
62853;DHT22;49205;44.868;38.140;2022-07-19T14:23:03;29.70;40.30
62853;DHT22;49205;44.868;38.140;2022-07-19T14:25:33;29.80;40.60
62853;DHT22;49205;44.868;38.140;2022-07-19T14:28:02;29.80;40.60
62853;DHT22;49205;44.868;38.140;2022-07-19T14:30:32;29.80;40.70
62853;DHT22;49205;44.868;38.140;2022-07-19T14:33:02;29.80;40.60
62853;DHT22;49205;44.868;38.140;2022-07-19T14:35:31;29.80;40.60
62853;DHT22;49205;44.868;38.140;2022-07-19T14:38:00;29.80;40.60
62853;DHT22;49205;44.868;38.140;2022-07-19T14:40:29;29.70;40.70
62853;DHT22;49205;44.868;38.140;2022-07-19T14:42:59;29.70;40.90
62853;DHT22;49205;44.868;38.140;2022-07-19T14:45:28;29.60;40.80
62853;DHT22;49205;44.868;38.140;2022-07-19T14:47:57;29.50;41.10
62853;DHT22;49205;44.868;38.140;2022-07-19T14:50:27;29.50;41.00
62853;DHT22;49205;44.868;38.140;2022-07-19T14:52:56;29.40;40.70
62853;DHT22;49205;44.868;38.140;2022-07-19T14:55:25;29.40;40.90
62853;DHT22;49205;44.868;38.140;2022-07-19T14:57:55;29.40;41.00
62853;DHT22;49205;44.868;38.140;2022-07-19T15:00:25;29.40;41.00
62853;DHT22;49205;44.868;38.140;2022-07-19T15:02:54;29.40;40.90
62853;DHT22;49205;44.868;38.140;2022-07-19T15:05:24;29.40;41.10
62853;DHT22;49205;44.868;38.140;2022-07-19T15:07:53;29.30;41.20
62853;DHT22;49205;44.868;38.140;2022-07-19T15:10:22;29.30;42.00
62853;DHT22;49205;44.868;38.140;2022-07-19T15:12:51;29.40;41.50
62853;DHT22;49205;44.868;38.140;2022-07-19T15:15:21;29.40;41.50
62853;DHT22;49205;44.868;38.140;2022-07-19T15:17:50;29.40;41.80
62853;DHT22;49205;44.868;38.140;2022-07-19T15:20:20;29.40;42.00
62853;DHT22;49205;44.868;38.140;2022-07-19T15:22:51;29.40;42.30
62853;DHT22;49205;44.868;38.140;2022-07-19T15:25:20;29.40;42.50
62853;DHT22;49205;44.868;38.140;2022-07-19T15:27:50;29.30;42.80
62853;DHT22;49205;44.868;38.140;2022-07-19T15:30:20;29.30;42.60
62853;DHT22;49205;44.868;38.140;2022-07-19T15:32:50;29.20;42.70
62853;DHT22;49205;44.868;38.140;2022-07-19T15:35:19;29.10;42.60
62853;DHT22;49205;44.868;38.140;2022-07-19T15:37:49;29.10;42.60
62853;DHT22;49205;44.868;38.140;2022-07-19T15:40:18;28.90;42.60
62853;DHT22;49205;44.868;38.140;2022-07-19T15:42:52;28.90;43.00
62853;DHT22;49205;44.868;38.140;2022-07-19T15:45:22;28.80;43.20
62853;DHT22;49205;44.868;38.140;2022-07-19T15:47:51;28.80;43.30
62853;DHT22;49205;44.868;38.140;2022-07-19T15:50:20;28.70;43.50
62853;DHT22;49205;44.868;38.140;2022-07-19T15:52:50;28.60;43.60
62853;DHT22;49205;44.868;38.140;2022-07-19T15:55:19;28.60;44.00
62853;DHT22;49205;44.868;38.140;2022-07-19T15:57:49;28.50;44.20
62853;DHT22;49205;44.868;38.140;2022-07-19T16:00:19;28.50;44.30
62853;DHT22;49205;44.868;38.140;2022-07-19T16:02:48;28.50;44.30
62853;DHT22;49205;44.868;38.140;2022-07-19T16:05:17;28.40;44.40
62853;DHT22;49205;44.868;38.140;2022-07-19T16:07:50;28.50;44.50
62853;DHT22;49205;44.868;38.140;2022-07-19T16:10:19;28.50;44.60
62853;DHT22;49205;44.868;38.140;2022-07-19T16:12:48;28.50;44.50
62853;DHT22;49205;44.868;38.140;2022-07-19T16:15:18;28.50;44.60
62853;DHT22;49205;44.868;38.140;2022-07-19T16:17:47;28.50;45.20
62853;DHT22;49205;44.868;38.140;2022-07-19T16:20:17;28.50;45.60
62853;DHT22;49205;44.868;38.140;2022-07-19T16:22:46;28.40;46.20
62853;DHT22;49205;44.868;38.140;2022-07-19T16:25:15;28.30;46.50
62853;DHT22;49205;44.868;38.140;2022-07-19T16:27:45;28.20;47.20
62853;DHT22;49205;44.868;38.140;2022-07-19T16:30:15;28.00;48.10
62853;DHT22;49205;44.868;38.140;2022-07-19T16:32:44;28.00;48.00
62853;DHT22;49205;44.868;38.140;2022-07-19T16:35:13;27.90;48.40
62853;DHT22;49205;44.868;38.140;2022-07-19T16:37:43;27.80;49.00
62853;DHT22;49205;44.868;38.140;2022-07-19T16:40:12;27.80;48.50
62853;DHT22;49205;44.868;38.140;2022-07-19T16:42:42;27.60;48.40
62853;DHT22;49205;44.868;38.140;2022-07-19T16:45:11;27.60;48.80
62853;DHT22;49205;44.868;38.140;2022-07-19T16:47:41;27.50;48.90
62853;DHT22;49205;44.868;38.140;2022-07-19T16:50:10;27.50;49.00
62853;DHT22;49205;44.868;38.140;2022-07-19T16:52:39;27.40;49.10
62853;DHT22;49205;44.868;38.140;2022-07-19T16:55:09;27.30;49.30
62853;DHT22;49205;44.868;38.140;2022-07-19T16:57:38;27.20;49.40
62853;DHT22;49205;44.868;38.140;2022-07-19T17:00:08;27.10;50.00
62853;DHT22;49205;44.868;38.140;2022-07-19T17:02:38;27.00;50.30
62853;DHT22;49205;44.868;38.140;2022-07-19T17:05:08;27.00;51.00
62853;DHT22;49205;44.868;38.140;2022-07-19T17:07:37;27.00;50.40
62853;DHT22;49205;44.868;38.140;2022-07-19T17:10:07;26.90;50.50
62853;DHT22;49205;44.868;38.140;2022-07-19T17:12:36;26.80;50.80
62853;DHT22;49205;44.868;38.140;2022-07-19T17:15:08;26.70;51.00
62853;DHT22;49205;44.868;38.140;2022-07-19T17:17:37;26.60;51.30
62853;DHT22;49205;44.868;38.140;2022-07-19T17:20:07;26.60;51.40
62853;DHT22;49205;44.868;38.140;2022-07-19T17:22:37;26.50;51.60
62853;DHT22;49205;44.868;38.140;2022-07-19T17:25:07;26.40;51.70
62853;DHT22;49205;44.868;38.140;2022-07-19T17:27:36;26.40;52.00
62853;DHT22;49205;44.868;38.140;2022-07-19T17:30:06;26.30;52.30
62853;DHT22;49205;44.868;38.140;2022-07-19T17:32:35;26.30;52.70
62853;DHT22;49205;44.868;38.140;2022-07-19T17:35:05;26.30;52.60